createdAt,value
2023-02-27T00:01:34.936Z,82.91
2023-02-27T00:05:39.422Z,82.89
2023-02-27T00:09:51.871Z,82.87
2023-02-27T00:14:04.273Z,82.89
2023-02-27T00:18:17.718Z,82.98
2023-02-27T00:22:29.959Z,82.97
2023-02-27T00:26:42.447Z,82.96
2023-02-27T00:30:50.269Z,82.96
2023-02-27T00:35:01.197Z,82.95
2023-02-27T00:39:26.849Z,82.96
2023-02-27T00:43:38.894Z,82.93
2023-02-27T00:48:01.910Z,82.92
2023-02-27T00:52:14.191Z,82.91
2023-02-27T00:56:26.611Z,82.89
2023-02-27T01:00:37.292Z,82.88
2023-02-27T01:04:49.716Z,82.87
2023-02-27T01:08:53.796Z,82.88
2023-02-27T01:13:19.760Z,82.85
2023-02-27T01:17:32.697Z,82.77
2023-02-27T01:21:44.854Z,82.80
2023-02-27T01:25:57.539Z,82.78
2023-02-27T01:30:04.105Z,82.74
2023-02-27T01:34:16.454Z,82.71
2023-02-27T01:38:28.711Z,82.59
2023-02-27T01:42:40.705Z,82.53
2023-02-27T01:46:52.781Z,82.44
2023-02-27T01:50:59.073Z,82.34
2023-02-27T01:55:11.217Z,82.24
2023-02-27T01:59:15.199Z,82.12
2023-02-27T02:03:30.098Z,82.01
2023-02-27T02:07:42.210Z,81.90
2023-02-27T02:11:54.119Z,81.80
2023-02-27T02:16:01.348Z,81.69
2023-02-27T02:20:11.970Z,81.62
2023-02-27T02:24:22.265Z,81.53
2023-02-27T02:28:40.424Z,81.46
2023-02-27T02:33:12.896Z,81.40
2023-02-27T02:37:27.748Z,81.42
2023-02-27T02:41:38.098Z,81.33
2023-02-27T02:45:50.248Z,81.15
2023-02-27T02:50:05.469Z,81.04
2023-02-27T02:54:17.634Z,80.93
2023-02-27T02:58:30.718Z,80.81
2023-02-27T03:02:55.753Z,80.70
2023-02-27T03:07:10.355Z,80.67
2023-02-27T03:11:25.456Z,80.63
2023-02-27T03:15:43.808Z,80.61
2023-02-27T03:19:59.342Z,80.57
2023-02-27T03:24:24.454Z,80.53
2023-02-27T03:28:36.302Z,80.48
2023-02-27T03:32:54.714Z,80.46
2023-02-27T03:37:06.512Z,80.42
2023-02-27T03:41:21.094Z,80.40
2023-02-27T03:45:35.690Z,80.35
2023-02-27T03:49:47.651Z,80.25
2023-02-27T03:54:02.940Z,80.28
2023-02-27T03:58:15.391Z,80.34
2023-02-27T04:02:27.993Z,80.28
2023-02-27T04:06:39.088Z,80.15
2023-02-27T04:10:57.249Z,80.11
2023-02-27T04:15:12.390Z,80.15
2023-02-27T04:19:36.990Z,80.17
2023-02-27T04:23:55.475Z,80.21
2023-02-27T04:28:07.873Z,80.21
2023-02-27T04:32:20.296Z,80.29
2023-02-27T04:36:33.514Z,80.42
2023-02-27T04:40:59.735Z,80.53
2023-02-27T04:45:14.924Z,80.58
2023-02-27T04:49:26.861Z,80.59
2023-02-27T04:53:38.592Z,80.60
2023-02-27T04:57:51.023Z,80.63
2023-02-27T05:02:15.750Z,80.67
2023-02-27T05:06:27.905Z,80.69
2023-02-27T05:10:39.902Z,80.70
2023-02-27T05:14:44.554Z,80.67
2023-02-27T05:18:56.502Z,80.63
2023-02-27T05:23:08.536Z,80.55
2023-02-27T05:27:23.580Z,80.49
2023-02-27T05:31:29.486Z,80.39
2023-02-27T05:35:44.954Z,80.37
2023-02-27T05:40:08.273Z,80.31
2023-02-27T05:44:25.840Z,80.06
2023-02-27T05:48:40.976Z,80.05
2023-02-27T05:52:52.961Z,80.07
2023-02-27T05:57:04.852Z,80.05
2023-02-27T06:01:28.998Z,80.02
2023-02-27T06:05:40.854Z,80.01
2023-02-27T06:09:53.453Z,80.02
2023-02-27T06:14:06.153Z,79.96
2023-02-27T06:18:12.628Z,79.97
2023-02-27T06:22:23.831Z,79.94
2023-02-27T06:26:36.160Z,79.91
2023-02-27T06:30:46.531Z,79.79
2023-02-27T06:34:58.535Z,79.75
2023-02-27T06:39:10.696Z,79.71
2023-02-27T06:43:22.453Z,79.53
2023-02-27T06:47:48.321Z,79.50
2023-02-27T06:52:00.429Z,79.39
2023-02-27T06:56:12.769Z,79.44
2023-02-27T07:00:38.707Z,79.37
2023-02-27T07:04:53.638Z,79.28
2023-02-27T07:09:06.523Z,79.17
2023-02-27T07:13:16.486Z,78.85
2023-02-27T07:17:30.846Z,78.78
2023-02-27T07:21:43.176Z,78.72
2023-02-27T07:25:54.831Z,78.67
2023-02-27T07:30:02.049Z,78.62
2023-02-27T07:34:13.747Z,78.47
2023-02-27T07:38:26.028Z,78.40
2023-02-27T07:42:38.340Z,78.41
2023-02-27T07:46:43.415Z,78.34
2023-02-27T07:50:56.091Z,78.29
2023-02-27T07:55:22.153Z,78.12
2023-02-27T07:59:29.151Z,77.94
2023-02-27T08:03:41.654Z,77.67
2023-02-27T08:07:53.702Z,77.48
2023-02-27T08:12:07.658Z,77.50
2023-02-27T08:16:20.744Z,77.40
2023-02-27T08:20:27.042Z,77.27
2023-02-27T08:24:31.418Z,77.24
2023-02-27T08:28:45.114Z,77.11
2023-02-27T08:32:57.752Z,76.99
2023-02-27T08:37:09.872Z,77.02
2023-02-27T08:41:22.094Z,76.92
2023-02-27T08:45:53.084Z,76.93
2023-02-27T08:49:57.555Z,76.70
2023-02-27T08:54:07.727Z,76.71
2023-02-27T08:58:19.746Z,76.07
2023-02-27T09:02:33.217Z,75.64
2023-02-27T09:06:45.909Z,75.26
2023-02-27T09:10:56.728Z,75.28
2023-02-27T09:15:08.837Z,75.08
2023-02-27T09:19:21.088Z,74.62
2023-02-27T09:23:33.023Z,73.48
2023-02-27T09:28:04.372Z,72.60
2023-02-27T09:32:15.984Z,72.41
2023-02-27T09:36:28.837Z,71.10
2023-02-27T09:40:41.383Z,71.62
2023-02-27T09:44:54.951Z,71.86
2023-02-27T09:49:09.788Z,72.16
2023-02-27T09:53:21.720Z,72.13
2023-02-27T09:57:36.529Z,72.33
2023-02-27T10:02:01.265Z,72.37
2023-02-27T10:06:07.658Z,72.44
2023-02-27T10:10:20.109Z,71.54
2023-02-27T10:14:32.033Z,70.32
2023-02-27T10:18:46.974Z,70.67
2023-02-27T10:23:12.714Z,71.03
2023-02-27T10:27:25.013Z,70.97
2023-02-27T10:31:37.367Z,71.07
2023-02-27T10:35:50.614Z,70.34
2023-02-27T10:40:02.735Z,70.76
2023-02-27T10:44:14.745Z,70.33
2023-02-27T10:48:32.120Z,69.55
2023-02-27T10:52:44.230Z,68.99
2023-02-27T10:56:55.931Z,69.16
2023-02-27T11:01:07.350Z,69.32
2023-02-27T11:05:33.610Z,68.94
2023-02-27T11:09:39.171Z,69.39
2023-02-27T11:13:50.993Z,69.53
2023-02-27T11:18:21.539Z,69.41
2023-02-27T11:22:31.207Z,68.95
2023-02-27T11:26:49.251Z,68.67
2023-02-27T11:31:04.507Z,68.79
2023-02-27T11:35:17.098Z,69.11
2023-02-27T11:39:35.393Z,68.18
2023-02-27T11:44:01.364Z,67.82
2023-02-27T11:48:13.690Z,67.91
2023-02-27T11:52:25.992Z,67.18
2023-02-27T11:56:38.672Z,67.57
2023-02-27T12:00:57.020Z,66.69
2023-02-27T12:05:15.428Z,67.20
2023-02-27T12:09:20.604Z,67.39
2023-02-27T12:13:29.676Z,67.52
2023-02-27T12:17:44.999Z,67.74
2023-02-27T12:22:11.271Z,67.36
2023-02-27T12:26:18.081Z,67.17
2023-02-27T12:30:32.381Z,67.37
2023-02-27T12:35:01.315Z,67.62
2023-02-27T12:39:08.506Z,67.10
2023-02-27T12:43:29.813Z,67.48
2023-02-27T12:47:42.534Z,67.64
2023-02-27T12:52:00.864Z,67.19
2023-02-27T12:56:25.208Z,67.43
2023-02-27T13:00:43.521Z,67.86
2023-02-27T13:04:58.913Z,67.96
2023-02-27T13:09:04.120Z,67.12
2023-02-27T13:13:16.353Z,65.73
2023-02-27T13:17:28.347Z,65.88
2023-02-27T13:21:41.191Z,66.49
2023-02-27T13:26:05.911Z,66.68
2023-02-27T13:30:20.330Z,66.85
2023-02-27T13:34:35.624Z,66.55
2023-02-27T13:38:46.714Z,66.52
2023-02-27T13:43:10.965Z,65.97
2023-02-27T13:47:39.938Z,65.81
2023-02-27T13:51:51.661Z,66.07
2023-02-27T13:56:17.533Z,66.05
2023-02-27T14:00:33.013Z,66.12
2023-02-27T14:04:40.095Z,66.40
2023-02-27T14:13:17.813Z,66.54
2023-02-27T14:17:31.351Z,66.59
2023-02-27T14:26:33.557Z,66.74
2023-02-27T14:30:49.022Z,66.51
2023-02-27T14:35:02.705Z,66.41
2023-02-27T14:39:13.473Z,66.63
2023-02-27T14:43:17.763Z,66.74
2023-02-27T14:47:33.398Z,66.84
2023-02-27T14:51:46.303Z,66.79
2023-02-27T14:55:57.004Z,66.84
2023-02-27T15:00:20.807Z,66.65
2023-02-27T15:04:32.108Z,66.79
2023-02-27T15:13:11.860Z,66.79
2023-02-27T15:17:25.505Z,66.65
2023-02-27T15:21:36.115Z,66.81
2023-02-27T15:36:25.788Z,63.18
2023-02-27T15:39:30.320Z,63.21
2023-02-27T15:43:04.716Z,63.06
2023-02-27T15:47:00.767Z,62.77
2023-02-27T15:50:27.614Z,62.94
2023-02-27T15:54:00.559Z,63.27
2023-02-27T15:57:35.992Z,62.90
2023-02-27T16:01:19.171Z,62.86
2023-02-27T16:04:50.827Z,63.20
2023-02-27T16:08:30.029Z,63.33
2023-02-27T16:12:33.316Z,63.63
2023-02-27T16:15:43.465Z,63.40
2023-02-27T16:19:33.171Z,63.24
2023-02-27T16:23:27.573Z,63.03
2023-02-27T16:26:37.245Z,63.29
2023-02-27T16:30:16.409Z,63.51
2023-02-27T16:33:52.423Z,63.85
2023-02-27T16:37:40.913Z,64.14
2023-02-27T16:41:11.061Z,64.04
2023-02-27T16:44:44.242Z,64.34
2023-02-27T16:48:22.731Z,64.44
2023-02-27T16:52:01.318Z,64.92
2023-02-27T16:55:43.699Z,65.21
2023-02-27T16:59:37.804Z,65.45
2023-02-27T17:02:52.985Z,65.23
2023-02-27T17:06:30.618Z,65.34
2023-02-27T17:10:09.153Z,65.70
2023-02-27T17:14:04.713Z,66.15
2023-02-27T17:17:23.721Z,66.32
2023-02-27T17:21:03.568Z,66.60
2023-02-27T17:24:39.333Z,66.93
2023-02-27T17:28:16.480Z,67.12
2023-02-27T17:31:54.602Z,67.00
2023-02-27T17:35:32.268Z,67.16
2023-02-27T17:39:12.575Z,67.30
2023-02-27T17:42:47.670Z,67.60
2023-02-27T17:46:35.226Z,67.89
2023-02-27T17:50:21.529Z,67.75
2023-02-27T17:53:40.747Z,68.05
2023-02-27T17:57:17.813Z,67.95
2023-02-27T18:00:55.712Z,68.31
2023-02-27T18:04:33.587Z,68.41
2023-02-27T18:08:10.966Z,68.67
2023-02-27T18:11:48.566Z,68.83
2023-02-27T18:15:26.481Z,68.93
2023-02-27T18:19:06.405Z,68.99
2023-02-27T18:22:41.711Z,69.33
2023-02-27T18:26:29.853Z,69.13
2023-02-27T18:29:57.751Z,69.24
2023-02-27T18:33:34.669Z,69.51
2023-02-27T18:37:12.177Z,69.59
2023-02-27T18:40:51.030Z,69.62
2023-02-27T18:44:27.543Z,69.73
2023-02-27T18:48:05.744Z,69.73
2023-02-27T18:51:44.548Z,69.79
2023-02-27T18:55:39.666Z,70.05
2023-02-27T18:59:02.287Z,70.14
2023-02-27T19:02:41.780Z,70.12
2023-02-27T19:06:14.013Z,70.12
2023-02-27T19:09:51.522Z,70.28
2023-02-27T19:13:29.465Z,70.40
2023-02-27T19:17:25.686Z,70.35
2023-02-27T19:20:44.792Z,70.35
2023-02-27T19:24:23.503Z,70.28
2023-02-27T19:28:00.531Z,70.37
2023-02-27T19:31:56.247Z,70.55
2023-02-27T19:35:34.368Z,70.69
2023-02-27T19:38:53.210Z,70.60
2023-02-27T19:42:30.753Z,70.60
2023-02-27T19:46:30.911Z,70.87
2023-02-27T19:49:45.780Z,70.98
2023-02-27T19:53:45.502Z,71.20
2023-02-27T19:57:01.973Z,71.33
2023-02-27T20:00:40.950Z,71.46
2023-02-27T20:04:17.961Z,71.57
2023-02-27T20:07:53.912Z,71.61
2023-02-27T20:11:32.561Z,71.98
2023-02-27T20:15:11.807Z,72.04
2023-02-27T20:18:46.942Z,72.17
2023-02-27T20:22:24.254Z,72.64
2023-02-27T20:26:48.046Z,72.97
2023-02-27T20:30:14.406Z,73.41
2023-02-27T20:46:05.376Z,76.41
2023-02-27T21:05:27.343Z,78.12
2023-02-27T21:09:32.150Z,78.29
2023-02-27T21:12:53.560Z,78.29
2023-02-27T21:16:35.637Z,78.54
2023-02-27T21:20:11.216Z,78.44
2023-02-27T21:23:54.527Z,78.66
2023-02-27T21:27:25.696Z,78.82
2023-02-27T21:32:21.365Z,79.30
2023-02-27T21:46:08.506Z,81.13
2023-02-27T21:49:37.837Z,80.81
2023-02-27T21:53:00.974Z,80.45
2023-02-27T21:56:38.728Z,79.98
2023-02-27T22:00:28.925Z,80.01
2023-02-27T22:04:04.058Z,79.94
2023-02-27T22:08:16.008Z,80.06
2023-02-27T22:11:22.306Z,79.65
2023-02-27T22:15:07.849Z,79.53
2023-02-27T22:18:39.216Z,79.27
2023-02-27T22:22:10.100Z,79.48
2023-02-27T22:26:10.062Z,79.53
2023-02-27T22:30:04.517Z,79.94
2023-02-27T22:34:09.462Z,79.96
2023-02-27T22:37:14.097Z,79.64
2023-02-27T22:41:23.032Z,80.02
2023-02-27T22:45:20.959Z,80.06
2023-02-27T22:49:07.046Z,80.05
2023-02-27T22:52:22.509Z,80.28
2023-02-27T22:56:00.809Z,80.27
2023-02-27T22:59:28.044Z,80.39
2023-02-27T23:03:02.974Z,80.67
2023-02-27T23:06:42.124Z,80.75
2023-02-27T23:10:19.580Z,80.56
2023-02-27T23:13:57.871Z,80.52
2023-02-27T23:17:57.620Z,80.27
2023-02-27T23:21:17.891Z,80.19
2023-02-27T23:25:00.864Z,80.20
2023-02-27T23:28:31.176Z,80.64
2023-02-27T23:32:09.926Z,80.96
2023-02-27T23:35:48.669Z,80.88
2023-02-27T23:39:25.202Z,80.63
2023-02-27T23:43:00.929Z,80.75
2023-02-27T23:46:42.308Z,81.11
2023-02-27T23:53:56.512Z,80.87
2023-02-27T23:57:36.679Z,80.90
